createdAt,value
2022-08-25T00:01:49.993Z,17.14
2022-08-25T00:04:20.647Z,17.20
2022-08-25T00:06:53.622Z,17.18
2022-08-25T00:09:27.269Z,17.18
2022-08-25T00:11:57.886Z,17.21
2022-08-25T00:14:37.961Z,17.27
2022-08-25T00:17:08.745Z,17.28
2022-08-25T00:19:40.292Z,17.31
2022-08-25T00:22:10.450Z,17.42
2022-08-25T00:24:40.790Z,17.52
2022-08-25T00:27:14.161Z,17.52
2022-08-25T00:29:45.250Z,17.51
2022-08-25T00:32:15.240Z,17.46
2022-08-25T00:34:45.798Z,17.48
2022-08-25T00:37:16.982Z,17.51
2022-08-25T00:39:47.942Z,17.51
2022-08-25T00:42:18.031Z,17.48
2022-08-25T00:44:48.073Z,17.52
2022-08-25T00:47:18.788Z,17.55
2022-08-25T00:49:56.797Z,17.55
2022-08-25T00:52:35.297Z,17.45
2022-08-25T00:55:20.201Z,17.38
2022-08-25T00:58:01.862Z,17.32
2022-08-25T01:00:43.131Z,17.23
2022-08-25T01:03:13.948Z,17.15
2022-08-25T01:05:46.758Z,17.04
2022-08-25T01:08:19.581Z,17.02
2022-08-25T01:10:51.503Z,16.95
2022-08-25T01:13:50.753Z,16.88
2022-08-25T01:16:20.814Z,16.72
2022-08-25T01:18:57.499Z,16.66
2022-08-25T01:21:29.936Z,16.59
2022-08-25T01:24:02.261Z,16.48
2022-08-25T01:26:35.141Z,16.39
2022-08-25T01:29:26.486Z,16.30
2022-08-25T01:32:03.701Z,16.19
2022-08-25T01:34:36.423Z,16.18
2022-08-25T01:37:07.049Z,16.14
2022-08-25T01:39:40.850Z,16.08
2022-08-25T01:42:44.728Z,15.98
2022-08-25T01:45:16.171Z,15.98
2022-08-25T01:47:46.273Z,16.00
2022-08-25T01:50:16.499Z,15.93
2022-08-25T01:52:53.397Z,15.84
2022-08-25T01:55:25.031Z,15.83
2022-08-25T01:57:55.097Z,15.71
2022-08-25T02:00:25.355Z,15.68
2022-08-25T02:02:55.928Z,15.70
2022-08-25T02:05:26.029Z,15.66
2022-08-25T02:07:59.244Z,15.63
2022-08-25T02:10:29.400Z,15.56
2022-08-25T02:13:01.310Z,15.50
2022-08-25T02:15:31.576Z,15.46
2022-08-25T02:18:01.754Z,15.49
2022-08-25T02:20:31.530Z,15.43
2022-08-25T02:23:01.284Z,15.39
2022-08-25T02:25:31.649Z,15.36
2022-08-25T02:28:02.071Z,15.32
2022-08-25T02:30:32.249Z,15.32
2022-08-25T02:33:02.037Z,15.30
2022-08-25T02:35:32.333Z,15.27
2022-08-25T02:38:02.105Z,15.20
2022-08-25T02:40:32.018Z,15.19
2022-08-25T02:43:01.869Z,15.23
2022-08-25T02:45:32.354Z,15.20
2022-08-25T02:48:02.343Z,15.20
2022-08-25T02:50:32.294Z,15.23
2022-08-25T02:53:02.011Z,15.22
2022-08-25T02:55:31.757Z,15.16
2022-08-25T02:58:05.020Z,15.15
2022-08-25T03:00:35.043Z,15.16
2022-08-25T03:03:05.886Z,15.06
2022-08-25T03:05:35.820Z,15.05
2022-08-25T03:08:07.268Z,15.03
2022-08-25T03:10:37.675Z,15.00
2022-08-25T03:13:07.460Z,15.00
2022-08-25T03:15:38.957Z,14.96
2022-08-25T03:18:09.169Z,14.99
2022-08-25T03:20:40.547Z,14.96
2022-08-25T03:23:10.783Z,14.92
2022-08-25T03:26:00.781Z,14.92
2022-08-25T03:28:34.215Z,14.96
2022-08-25T03:31:04.651Z,14.89
2022-08-25T03:33:34.737Z,14.89
2022-08-25T03:36:04.974Z,14.88
2022-08-25T03:38:34.933Z,14.82
2022-08-25T03:41:24.213Z,14.74
2022-08-25T03:43:59.190Z,14.74
2022-08-25T03:46:31.830Z,14.64
2022-08-25T03:49:05.304Z,14.56
2022-08-25T03:51:38.079Z,14.52
2022-08-25T03:54:10.578Z,14.51
2022-08-25T03:56:41.150Z,14.52
2022-08-25T03:59:11.573Z,14.51
2022-08-25T04:01:43.445Z,14.42
2022-08-25T04:04:16.501Z,14.40
2022-08-25T04:06:46.793Z,14.41
2022-08-25T04:09:16.539Z,14.40
2022-08-25T04:11:46.340Z,14.34
2022-08-25T04:14:19.358Z,14.30
2022-08-25T04:16:49.144Z,14.29
2022-08-25T04:19:18.953Z,14.27
2022-08-25T04:21:48.766Z,14.23
2022-08-25T04:24:18.836Z,14.29
2022-08-25T04:26:51.958Z,14.29
2022-08-25T04:29:25.049Z,14.31
2022-08-25T04:31:56.438Z,14.33
2022-08-25T04:34:30.428Z,14.34
2022-08-25T04:37:03.899Z,14.34
2022-08-25T04:39:34.308Z,14.31
2022-08-25T04:42:04.969Z,14.30
2022-08-25T04:44:35.272Z,14.27
2022-08-25T04:47:05.303Z,14.31
2022-08-25T04:49:35.023Z,14.33
2022-08-25T04:52:04.940Z,14.34
2022-08-25T04:54:43.388Z,14.36
2022-08-25T04:57:13.190Z,14.36
2022-08-25T04:59:42.874Z,14.36
2022-08-25T05:02:12.741Z,14.31
2022-08-25T05:04:42.684Z,14.31
2022-08-25T05:07:12.840Z,14.27
2022-08-25T05:09:42.990Z,14.20
2022-08-25T05:12:12.926Z,14.16
2022-08-25T05:14:42.961Z,14.13
2022-08-25T05:17:12.664Z,14.14
2022-08-25T05:19:41.920Z,14.12
2022-08-25T05:22:11.569Z,14.10
2022-08-25T05:24:42.116Z,14.14
2022-08-25T05:27:12.583Z,14.13
2022-08-25T05:29:42.359Z,14.10
2022-08-25T05:32:12.158Z,14.09
2022-08-25T05:34:41.924Z,14.10
2022-08-25T05:37:12.251Z,14.09
2022-08-25T05:39:41.995Z,14.00
2022-08-25T05:42:12.183Z,14.03
2022-08-25T05:44:41.782Z,14.02
2022-08-25T05:47:11.023Z,13.99
2022-08-25T05:49:40.663Z,13.96
2022-08-25T05:52:09.898Z,13.95
2022-08-25T05:54:41.006Z,13.92
2022-08-25T05:57:11.241Z,13.89
2022-08-25T05:59:41.120Z,13.86
2022-08-25T06:02:28.783Z,13.82
2022-08-25T06:05:00.123Z,13.79
2022-08-25T06:07:31.124Z,13.85
2022-08-25T06:10:01.231Z,13.79
2022-08-25T06:12:33.665Z,13.75
2022-08-25T06:15:04.883Z,13.75
2022-08-25T06:17:36.523Z,13.72
2022-08-25T06:20:07.959Z,13.72
2022-08-25T06:22:38.842Z,13.66
2022-08-25T06:25:10.782Z,13.65
2022-08-25T06:27:41.392Z,13.57
2022-08-25T06:30:13.853Z,13.57
2022-08-25T06:32:48.286Z,13.54
2022-08-25T06:35:21.425Z,13.52
2022-08-25T06:37:51.472Z,13.48
2022-08-25T06:40:21.392Z,13.42
2022-08-25T06:42:51.503Z,13.41
2022-08-25T06:45:20.815Z,13.45
2022-08-25T06:47:50.630Z,13.45
2022-08-25T06:50:19.955Z,13.44
2022-08-25T06:52:49.953Z,13.41
2022-08-25T06:55:19.465Z,13.34
2022-08-25T06:57:49.662Z,13.31
2022-08-25T07:00:19.499Z,13.30
2022-08-25T07:02:49.569Z,13.31
2022-08-25T07:05:33.540Z,13.31
2022-08-25T07:08:04.319Z,13.32
2022-08-25T07:10:37.058Z,13.27
2022-08-25T07:13:07.642Z,13.25
2022-08-25T07:15:41.224Z,13.31
2022-08-25T07:18:13.722Z,13.34
2022-08-25T07:20:44.197Z,13.34
2022-08-25T07:23:14.025Z,13.28
2022-08-25T07:25:43.728Z,13.25
2022-08-25T07:28:13.269Z,13.15
2022-08-25T07:30:43.104Z,13.11
2022-08-25T07:33:13.282Z,13.07
2022-08-25T07:35:44.580Z,13.04
2022-08-25T07:38:19.211Z,13.07
2022-08-25T07:40:57.062Z,13.06
2022-08-25T07:43:27.095Z,13.00
2022-08-25T07:45:57.094Z,13.00
2022-08-25T07:48:26.947Z,13.03
2022-08-25T07:50:57.564Z,13.07
2022-08-25T07:53:27.398Z,13.01
2022-08-25T07:55:57.311Z,12.96
2022-08-25T07:58:27.174Z,12.92
2022-08-25T08:00:56.989Z,12.96
2022-08-25T08:03:44.735Z,12.96
2022-08-25T08:06:18.054Z,12.97
2022-08-25T08:08:50.430Z,13.00
2022-08-25T08:11:35.010Z,12.96
2022-08-25T08:14:06.639Z,12.99
2022-08-25T08:16:36.047Z,12.99
2022-08-25T08:19:06.120Z,12.99
2022-08-25T08:21:38.173Z,12.99
2022-08-25T08:24:19.786Z,12.97
2022-08-25T08:26:59.392Z,12.93
2022-08-25T08:29:29.661Z,12.92
2022-08-25T08:32:01.766Z,12.87
2022-08-25T08:34:33.695Z,12.86
2022-08-25T08:37:03.921Z,12.89
2022-08-25T08:39:34.385Z,12.90
2022-08-25T08:42:45.389Z,12.89
2022-08-25T08:45:35.551Z,12.84
2022-08-25T08:48:36.445Z,12.87
2022-08-25T08:51:32.954Z,12.82
2022-08-25T08:54:15.592Z,12.80
2022-08-25T08:56:52.251Z,12.84
2022-08-25T08:59:31.201Z,12.86
2022-08-25T09:02:04.214Z,12.89
2022-08-25T09:04:46.732Z,12.86
2022-08-25T09:07:21.232Z,12.83
2022-08-25T09:09:53.401Z,12.75
2022-08-25T09:12:48.205Z,12.73
2022-08-25T09:16:31.575Z,12.67
2022-08-25T09:19:25.840Z,12.67
2022-08-25T09:22:36.838Z,12.64
2022-08-25T09:25:53.187Z,12.67
2022-08-25T09:28:43.044Z,12.72
2022-08-25T09:31:29.142Z,12.72
2022-08-25T09:34:03.163Z,12.60
2022-08-25T09:36:37.787Z,12.56
2022-08-25T09:39:09.900Z,12.56
2022-08-25T09:42:06.489Z,12.56
2022-08-25T09:44:45.355Z,12.53
2022-08-25T09:47:29.172Z,12.57
2022-08-25T09:50:04.623Z,12.57
2022-08-25T09:52:37.655Z,12.59
2022-08-25T09:55:07.551Z,12.67
2022-08-25T09:57:45.924Z,12.64
2022-08-25T10:00:23.356Z,12.69
2022-08-25T10:03:05.959Z,12.73
2022-08-25T10:05:58.639Z,12.69
2022-08-25T10:08:54.248Z,12.75
2022-08-25T10:11:39.483Z,12.80
2022-08-25T10:14:20.908Z,12.96
2022-08-25T10:16:51.527Z,13.07
2022-08-25T10:19:24.633Z,13.15
2022-08-25T10:22:11.263Z,13.34
2022-08-25T10:24:44.134Z,13.47
2022-08-25T10:27:52.067Z,13.61
2022-08-25T10:30:37.179Z,13.78
2022-08-25T10:33:23.966Z,13.89
2022-08-25T10:36:00.368Z,14.02
2022-08-25T10:38:45.159Z,14.16
2022-08-25T10:41:35.722Z,14.33
2022-08-25T10:44:45.503Z,14.45
2022-08-25T10:47:46.639Z,14.63
2022-08-25T10:50:24.973Z,14.84
2022-08-25T10:53:09.839Z,14.99
2022-08-25T10:56:14.732Z,15.25
2022-08-25T10:59:18.427Z,15.47
2022-08-25T11:02:17.632Z,15.85
2022-08-25T11:05:07.891Z,16.00
2022-08-25T11:07:43.895Z,16.56
2022-08-25T11:10:27.610Z,17.39
2022-08-25T11:13:01.339Z,18.51
2022-08-25T11:16:00.189Z,19.89
2022-08-25T11:18:42.934Z,21.73
2022-08-25T11:21:20.533Z,22.47
2022-08-25T11:24:04.379Z,23.06
2022-08-25T11:26:38.613Z,23.68
2022-08-25T11:29:20.167Z,24.11
2022-08-25T11:31:55.709Z,23.96
2022-08-25T11:34:27.561Z,23.84
2022-08-25T11:37:29.222Z,24.46
2022-08-25T11:40:12.798Z,24.76
2022-08-25T11:42:48.713Z,24.75
2022-08-25T11:45:42.585Z,24.83
2022-08-25T11:48:36.151Z,24.86
2022-08-25T11:51:42.028Z,25.59
2022-08-25T11:54:26.560Z,25.96
2022-08-25T11:57:05.430Z,26.27
2022-08-25T11:59:58.355Z,26.34
2022-08-25T12:02:42.575Z,25.89
2022-08-25T12:05:12.706Z,26.24
2022-08-25T12:08:12.622Z,26.72
2022-08-25T12:10:54.696Z,26.91
2022-08-25T12:14:21.620Z,26.88
2022-08-25T12:17:01.806Z,26.82
2022-08-25T12:19:38.102Z,26.77
2022-08-25T12:22:11.205Z,26.48
2022-08-25T12:24:48.186Z,26.50
2022-08-25T12:27:27.399Z,26.55
2022-08-25T12:30:18.501Z,26.36
2022-08-25T12:33:14.818Z,26.60
2022-08-25T12:36:11.190Z,26.51
2022-08-25T12:38:52.161Z,26.45
2022-08-25T12:41:33.755Z,26.74
2022-08-25T12:44:42.818Z,26.70
2022-08-25T12:47:28.309Z,26.85
2022-08-25T12:50:26.109Z,27.06
2022-08-25T12:52:58.672Z,26.55
2022-08-25T12:55:29.997Z,26.58
2022-08-25T12:58:02.533Z,26.87
2022-08-25T13:00:47.424Z,26.89
2022-08-25T13:03:52.071Z,26.95
2022-08-25T13:06:28.186Z,26.71
2022-08-25T13:09:08.298Z,27.09
2022-08-25T13:11:58.691Z,27.01
2022-08-25T13:14:44.611Z,27.39
2022-08-25T13:17:28.352Z,27.36
2022-08-25T13:20:18.666Z,27.28
2022-08-25T13:22:56.689Z,27.08
2022-08-25T13:25:32.251Z,27.02
2022-08-25T13:28:10.900Z,27.32
2022-08-25T13:30:41.586Z,27.51
2022-08-25T13:33:22.824Z,27.87
2022-08-25T13:36:14.532Z,28.17
2022-08-25T13:38:46.703Z,27.98
2022-08-25T13:41:29.260Z,28.49
2022-08-25T13:44:02.051Z,28.24
2022-08-25T13:46:35.503Z,28.12
2022-08-25T13:49:08.674Z,28.24
2022-08-25T13:51:43.612Z,28.28
2022-08-25T13:54:28.894Z,28.17
2022-08-25T13:57:18.873Z,28.63
2022-08-25T13:59:57.331Z,28.67
2022-08-25T14:02:53.566Z,29.03
2022-08-25T14:05:36.076Z,28.86
2022-08-25T14:08:16.018Z,28.82
2022-08-25T14:11:14.577Z,29.33
2022-08-25T14:13:46.714Z,29.17
2022-08-25T14:16:25.440Z,29.06
2022-08-25T14:18:59.545Z,29.13
2022-08-25T14:21:31.977Z,28.86
2022-08-25T14:24:04.972Z,29.30
2022-08-25T14:26:34.829Z,29.28
2022-08-25T14:29:05.480Z,29.28
2022-08-25T14:31:43.735Z,29.64
2022-08-25T14:34:20.245Z,29.92
2022-08-25T14:36:51.155Z,29.75
2022-08-25T14:39:21.383Z,29.72
2022-08-25T14:41:53.301Z,29.51
2022-08-25T14:44:24.334Z,29.65
2022-08-25T14:46:58.908Z,29.90
2022-08-25T14:49:35.054Z,29.96
2022-08-25T14:52:31.575Z,30.22
2022-08-25T14:55:01.505Z,30.30
2022-08-25T14:57:31.359Z,30.22
2022-08-25T15:00:01.739Z,30.53
2022-08-25T15:02:45.050Z,30.72
2022-08-25T15:05:21.999Z,30.64
2022-08-25T15:08:12.459Z,30.34
2022-08-25T15:10:43.418Z,30.29
2022-08-25T15:13:14.454Z,30.82
2022-08-25T15:15:52.620Z,30.91
2022-08-25T15:18:23.844Z,30.45
2022-08-25T15:20:55.421Z,30.60
2022-08-25T15:23:27.496Z,30.54
2022-08-25T15:25:58.003Z,30.77
2022-08-25T15:28:27.718Z,30.98
2022-08-25T15:30:57.841Z,30.98
2022-08-25T15:33:27.960Z,30.81
2022-08-25T15:35:58.403Z,30.87
2022-08-25T15:38:28.341Z,31.05
2022-08-25T15:40:58.068Z,31.09
2022-08-25T15:43:28.248Z,31.03
2022-08-25T15:45:58.566Z,31.29
2022-08-25T15:48:28.750Z,31.28
2022-08-25T15:51:02.729Z,31.05
2022-08-25T15:53:35.341Z,30.94
2022-08-25T15:56:07.582Z,31.38
2022-08-25T15:58:37.564Z,31.78
2022-08-25T16:01:19.345Z,31.87
2022-08-25T16:03:49.909Z,31.76
2022-08-25T16:06:20.469Z,31.74
2022-08-25T16:08:50.321Z,31.90
2022-08-25T16:11:21.328Z,31.49
2022-08-25T16:13:52.642Z,31.94
2022-08-25T16:16:24.983Z,32.39
2022-08-25T16:18:55.642Z,32.34
2022-08-25T16:21:32.154Z,32.44
2022-08-25T16:24:07.395Z,32.96
2022-08-25T16:26:48.154Z,32.83
2022-08-25T16:29:20.419Z,32.64
2022-08-25T16:31:53.249Z,32.64
2022-08-25T16:34:28.514Z,32.87
2022-08-25T16:36:59.482Z,33.65
2022-08-25T16:39:29.291Z,34.04
2022-08-25T16:41:59.478Z,33.58
2022-08-25T16:44:29.297Z,33.04
2022-08-25T16:46:59.569Z,33.44
2022-08-25T16:49:30.022Z,34.06
2022-08-25T16:51:59.829Z,34.13
2022-08-25T16:54:48.180Z,33.75
2022-08-25T16:57:18.459Z,34.13
2022-08-25T16:59:48.246Z,34.29
2022-08-25T17:02:17.992Z,33.55
2022-08-25T17:04:51.752Z,33.65
2022-08-25T17:07:24.021Z,33.71
2022-08-25T17:09:54.371Z,34.25
2022-08-25T17:12:24.435Z,33.90
2022-08-25T17:14:55.686Z,33.60
2022-08-25T17:17:27.180Z,34.01
2022-08-25T17:19:57.128Z,34.66
2022-08-25T17:22:28.206Z,34.87
2022-08-25T17:25:01.021Z,34.63
2022-08-25T17:27:31.464Z,34.32
2022-08-25T17:30:01.294Z,34.04
2022-08-25T17:32:31.060Z,34.31
2022-08-25T17:35:00.831Z,34.22
2022-08-25T17:37:34.904Z,35.03
2022-08-25T17:40:07.776Z,35.35
2022-08-25T17:42:41.823Z,34.84
2022-08-25T17:45:11.989Z,35.15
2022-08-25T17:47:41.757Z,36.64
2022-08-25T17:50:12.359Z,37.23
2022-08-25T17:52:43.060Z,36.40
2022-08-25T17:55:14.171Z,36.45
2022-08-25T17:57:45.652Z,36.90
2022-08-25T18:00:17.244Z,37.11
2022-08-25T18:02:48.318Z,37.77
2022-08-25T18:05:19.368Z,38.37
2022-08-25T18:07:51.493Z,37.84
2022-08-25T18:10:22.381Z,37.94
2022-08-25T18:12:54.253Z,38.13
2022-08-25T18:15:24.356Z,38.49
2022-08-25T18:17:55.209Z,38.83
2022-08-25T18:20:27.472Z,38.45
2022-08-25T18:23:00.640Z,38.54
2022-08-25T18:25:31.209Z,38.80
2022-08-25T18:28:01.433Z,38.73
2022-08-25T18:30:31.280Z,38.99
2022-08-25T18:33:01.016Z,38.85
2022-08-25T18:35:32.389Z,38.66
2022-08-25T18:38:21.230Z,38.27
2022-08-25T18:40:57.924Z,38.66
2022-08-25T18:43:31.906Z,38.78
2022-08-25T18:46:05.727Z,39.65
2022-08-25T18:48:35.924Z,38.61
2022-08-25T18:51:10.388Z,39.40
2022-08-25T18:53:50.383Z,39.43
2022-08-25T18:56:21.667Z,39.10
2022-08-25T18:58:51.851Z,39.53
2022-08-25T19:01:21.857Z,39.72
2022-08-25T19:03:52.260Z,38.73
2022-08-25T19:06:22.073Z,37.93
2022-08-25T19:08:52.123Z,37.30
2022-08-25T19:11:22.602Z,36.50
2022-08-25T19:13:53.601Z,34.70
2022-08-25T19:16:40.733Z,33.27
2022-08-25T19:19:14.701Z,30.41
2022-08-25T19:21:45.426Z,29.30
2022-08-25T19:24:18.865Z,28.76
2022-08-25T19:26:51.457Z,28.29
2022-08-25T19:29:25.420Z,27.94
2022-08-25T19:31:55.776Z,27.76
2022-08-25T19:34:30.535Z,27.60
2022-08-25T19:37:04.641Z,27.43
2022-08-25T19:39:39.008Z,27.30
2022-08-25T19:42:37.160Z,27.16
2022-08-25T19:45:00.717Z,27.10
2022-08-25T19:47:30.835Z,27.08
2022-08-25T19:50:01.781Z,26.96
2022-08-25T19:52:31.564Z,26.77
2022-08-25T19:55:04.004Z,26.74
2022-08-25T19:57:43.147Z,26.61
2022-08-25T20:00:18.294Z,26.58
2022-08-25T20:02:48.938Z,26.43
2022-08-25T20:05:23.856Z,26.36
2022-08-25T20:07:56.283Z,26.34
2022-08-25T20:10:29.088Z,26.23
2022-08-25T20:13:01.973Z,26.12
2022-08-25T20:15:34.482Z,25.89
2022-08-25T20:18:08.961Z,25.75
2022-08-25T20:20:38.990Z,25.65
2022-08-25T20:23:31.850Z,25.51
2022-08-25T20:26:02.159Z,25.39
2022-08-25T20:28:31.924Z,25.20
2022-08-25T20:31:03.940Z,25.10
2022-08-25T20:33:35.069Z,24.94
2022-08-25T20:36:05.976Z,24.80
2022-08-25T20:38:37.161Z,24.65
2022-08-25T20:41:11.236Z,24.46
2022-08-25T20:43:44.000Z,24.24
2022-08-25T20:46:14.494Z,24.22
2022-08-25T20:48:45.484Z,24.18
2022-08-25T20:51:15.350Z,24.08
2022-08-25T20:53:49.356Z,23.93
2022-08-25T20:56:21.394Z,23.81
2022-08-25T20:58:51.671Z,23.61
2022-08-25T21:01:24.965Z,23.51
2022-08-25T21:03:55.091Z,23.39
2022-08-25T21:06:24.771Z,23.36
2022-08-25T21:08:55.054Z,23.34
2022-08-25T21:11:27.416Z,23.10
2022-08-25T21:14:00.245Z,23.12
2022-08-25T21:16:31.589Z,22.96
2022-08-25T21:19:01.390Z,22.89
2022-08-25T21:21:31.704Z,22.82
2022-08-25T21:24:02.530Z,22.79
2022-08-25T21:26:33.616Z,22.78
2022-08-25T21:29:05.148Z,22.52
2022-08-25T21:31:37.438Z,22.27
2022-08-25T21:34:10.416Z,22.03
2022-08-25T21:36:43.204Z,21.75
2022-08-25T21:39:14.253Z,21.41
2022-08-25T21:41:45.828Z,21.42
2022-08-25T21:44:16.194Z,21.27
2022-08-25T21:46:54.427Z,20.97
2022-08-25T21:49:26.464Z,20.77
2022-08-25T21:52:00.267Z,20.57
2022-08-25T21:54:31.754Z,20.36
2022-08-25T21:57:05.282Z,20.24
2022-08-25T21:59:39.283Z,20.04
2022-08-25T22:02:14.129Z,19.92
2022-08-25T22:04:46.786Z,19.77
2022-08-25T22:07:18.258Z,19.63
2022-08-25T22:09:48.257Z,19.49
2022-08-25T22:12:20.811Z,19.43
2022-08-25T22:14:50.783Z,19.34
2022-08-25T22:17:21.014Z,19.26
2022-08-25T22:19:54.474Z,19.13
2022-08-25T22:22:24.377Z,19.00
2022-08-25T22:24:57.046Z,18.76
2022-08-25T22:27:27.286Z,18.68
2022-08-25T22:29:57.140Z,18.71
2022-08-25T22:32:27.973Z,18.62
2022-08-25T22:34:58.137Z,18.48
2022-08-25T22:37:30.451Z,18.47
2022-08-25T22:40:00.906Z,18.38
2022-08-25T22:42:31.670Z,18.38
2022-08-25T22:45:02.285Z,18.24
2022-08-25T22:47:33.880Z,18.16
2022-08-25T22:50:04.256Z,18.18
2022-08-25T22:52:35.137Z,18.16
2022-08-25T22:55:05.651Z,18.06
2022-08-25T22:57:42.453Z,17.97
2022-08-25T23:00:15.728Z,17.97
2022-08-25T23:02:46.405Z,17.89
2022-08-25T23:05:16.728Z,17.89
2022-08-25T23:07:46.764Z,17.93
2022-08-25T23:10:16.549Z,17.94
2022-08-25T23:12:46.278Z,17.94
2022-08-25T23:15:16.299Z,17.96
2022-08-25T23:17:47.323Z,17.96
2022-08-25T23:20:36.736Z,18.00
2022-08-25T23:23:15.200Z,18.00
2022-08-25T23:25:45.017Z,17.96
2022-08-25T23:28:15.074Z,17.90
2022-08-25T23:30:45.067Z,17.90
2022-08-25T23:33:28.125Z,17.87
2022-08-25T23:36:05.343Z,17.86
2022-08-25T23:38:35.998Z,17.86
2022-08-25T23:41:18.800Z,17.83
2022-08-25T23:43:50.377Z,17.75
2022-08-25T23:46:24.304Z,17.61
2022-08-25T23:48:57.125Z,17.61
2022-08-25T23:51:37.387Z,17.61
2022-08-25T23:54:12.197Z,17.59
2022-08-25T23:56:51.466Z,17.53
2022-08-25T23:59:24.276Z,17.48
